Time;durP1;ratioP1;P1;durP2;ratioP2;P2;SDS_P1;SDS_P2;PMS_P1;PMS_P2;Temp;Humidity;BMP_temperature;BMP_pressure;BME280_temperature;BME280_humidity;BME280_pressure;Samples;Min_cycle;Max_cycle;Signal;HPM_P1;HPM_P2
2022/09/29 00:00:53;;;;;;;7.88;6.05;;;5.40;99.90;;;;;;5053706;28;20064;-59
2022/09/29 00:03:20;;;;;;;9.32;5.65;;;5.60;99.90;;;;;;5052225;28;20056;-58
2022/09/29 00:05:57;;;;;;;11.35;6.07;;;6.10;99.90;;;;;;5053868;28;20143;-59
2022/09/29 00:08:30;;;;;;;7.97;5.90;;;6.00;99.90;;;;;;5053556;28;20037;-58
2022/09/29 00:10:56;;;;;;;9.73;7.22;;;6.00;99.90;;;;;;5053266;28;20279;-58
2022/09/29 00:13:35;;;;;;;7.95;6.65;;;6.00;99.90;;;;;;5053370;28;20044;-59
2022/09/29 00:16:02;;;;;;;7.43;6.32;;;5.90;99.90;;;;;;5053492;28;20199;-59
2022/09/29 00:18:34;;;;;;;11.15;7.65;;;6.90;99.90;;;;;;5053180;28;20095;-59
2022/09/29 00:21:01;;;;;;;11.02;8.00;;;6.40;99.90;;;;;;5053073;28;20074;-58
2022/09/29 00:23:28;;;;;;;10.80;8.15;;;6.10;99.90;;;;;;5051755;28;20041;-59
2022/09/29 00:26:20;;;;;;;9.48;7.95;;;6.10;99.90;;;;;;5053328;28;20037;-59
2022/09/29 00:28:51;;;;;;;27.23;9.60;;;6.10;99.90;;;;;;5053416;28;20041;-59
2022/09/29 00:31:17;;;;;;;22.98;9.32;;;5.50;99.90;;;;;;5052911;28;20098;-59
2022/09/29 00:33:44;;;;;;;10.05;7.88;;;;;;;;;;5052866;28;20040;-59
2022/09/29 00:36:13;;;;;;;11.40;7.68;;;5.40;99.90;;;;;;5053150;28;20045;-59
2022/09/29 00:38:41;;;;;;;11.93;8.65;;;5.30;99.90;;;;;;5046787;28;20045;-59
2022/09/29 00:41:12;;;;;;;13.45;10.13;;;6.10;99.90;;;;;;5035403;28;20045;-59
2022/09/29 00:43:56;;;;;;;11.50;9.93;;;6.40;99.90;;;;;;5035806;28;20081;-59
2022/09/29 00:46:32;;;;;;;12.05;9.30;;;6.20;99.90;;;;;;5045862;28;20175;-59
2022/09/29 00:49:33;;;;;;;16.40;10.15;;;6.00;99.90;;;;;;5053090;28;20041;-59
2022/09/29 00:52:15;;;;;;;14.50;10.07;;;6.50;99.90;;;;;;5053079;28;20048;-59
2022/09/29 00:54:50;;;;;;;11.75;9.27;;;6.20;99.90;;;;;;5053102;28;20037;-59
2022/09/29 00:57:20;;;;;;;14.90;9.07;;;6.30;99.90;;;;;;5052903;28;20463;-60
2022/09/29 01:00:01;;;;;;;15.00;9.23;;;6.00;99.90;;;;;;5052872;28;20128;-59
2022/09/29 01:02:33;;;;;;;11.57;7.28;;;5.90;99.90;;;;;;5052734;28;20087;-59
2022/09/29 01:05:02;;;;;;;10.73;8.43;;;5.60;99.90;;;;;;5051334;28;20057;-59
2022/09/29 01:07:28;;;;;;;15.25;9.48;;;5.30;99.90;;;;;;5053266;28;20036;-59
2022/09/29 01:09:55;;;;;;;20.58;10.73;;;5.80;99.90;;;;;;5056809;28;20405;-59
2022/09/29 01:12:22;;;;;;;12.90;9.20;;;6.30;99.90;;;;;;5056667;28;20037;-59
2022/09/29 01:14:55;;;;;;;11.43;8.90;;;6.40;99.90;;;;;;5057069;28;20040;-59
2022/09/29 01:17:21;;;;;;;11.43;8.02;;;5.80;99.90;;;;;;5056403;28;20492;-59
2022/09/29 01:20:12;;;;;;;14.68;7.53;;;5.70;99.90;;;;;;5055886;28;20385;-59
2022/09/29 01:23:08;;;;;;;10.68;7.88;;;5.70;99.90;;;;;;5056366;28;20048;-59
2022/09/29 01:26:05;;;;;;;12.95;8.18;;;6.10;99.90;;;;;;5056618;28;20069;-59
2022/09/29 01:29:04;;;;;;;32.40;10.48;;;5.60;99.90;;;;;;5056360;28;20071;-59
2022/09/29 01:32:04;;;;;;;15.57;10.53;;;5.80;99.90;;;;;;5055123;28;20120;-58
2022/09/29 01:34:33;;;;;;;33.08;11.23;;;5.80;99.90;;;;;;5056187;28;20283;-59
2022/09/29 01:37:21;;;;;;;15.75;9.82;;;5.40;99.90;;;;;;5056232;28;20083;-59
2022/09/29 01:40:21;;;;;;;60.92;10.65;;;5.70;99.90;;;;;;5056068;28;20045;-58
2022/09/29 01:43:11;;;;;;;33.70;11.18;;;5.40;99.90;;;;;;5055989;28;20037;-59
2022/09/29 01:45:46;;;;;;;62.55;11.40;;;5.60;99.90;;;;;;5054964;28;20064;-59
2022/09/29 01:48:18;;;;;;;236.98;15.13;;;5.50;99.90;;;;;;5056271;28;20067;-59
2022/09/29 01:50:51;;;;;;;90.80;12.90;;;5.20;99.90;;;;;;5056003;28;20495;-60
2022/09/29 01:53:28;;;;;;;16.42;10.68;;;5.70;99.90;;;;;;5054565;28;20060;-59
2022/09/29 01:56:00;;;;;;;85.43;12.25;;;5.70;99.90;;;;;;5056235;28;20127;-59
2022/09/29 01:58:36;;;;;;;36.47;12.88;;;5.70;99.90;;;;;;5055574;28;20110;-59
2022/09/29 02:01:05;;;;;;;;;;;5.60;99.90;;;;;;5056115;28;20037;-59
2022/09/29 02:03:40;;;;;;;263.88;19.27;;;5.40;99.90;;;;;;5055363;28;19924;-60
2022/09/29 02:06:15;;;;;;;51.87;13.23;;;5.90;99.90;;;;;;5055720;28;20048;-60
2022/09/29 02:08:50;;;;;;;27.17;13.55;;;5.50;99.90;;;;;;5055568;28;20274;-60
2022/09/29 02:11:18;;;;;;;63.22;14.05;;;5.60;99.90;;;;;;5055723;28;20088;-61
2022/09/29 02:14:10;;;;;;;21.45;11.38;;;5.50;99.90;;;;;;5055379;28;20128;-60
2022/09/29 02:16:42;;;;;;;38.22;13.32;;;5.90;99.90;;;;;;5055363;28;20484;-61
2022/09/29 02:19:18;;;;;;;109.57;13.93;;;5.60;99.90;;;;;;5054283;28;20497;-60
2022/09/29 02:21:44;;;;;;;36.45;12.80;;;5.70;99.90;;;;;;5054488;28;20466;-60
2022/09/29 02:24:13;;;;;;;59.25;12.85;;;5.50;99.90;;;;;;5055363;28;20037;-60
2022/09/29 02:26:40;;;;;;;36.35;12.30;;;5.60;99.90;;;;;;5055663;28;20044;-60
2022/09/29 02:29:07;;;;;;;36.00;12.63;;;5.70;99.90;;;;;;5054201;28;20112;-60
2022/09/29 02:31:34;;;;;;;33.00;11.88;;;5.60;99.90;;;;;;5055094;28;20497;-60
2022/09/29 02:34:03;;;;;;;19.15;11.77;;;5.70;99.90;;;;;;5055326;28;20049;-60
2022/09/29 02:37:08;;;;;;;39.33;12.00;;;5.60;99.90;;;;;;5054884;28;20099;-60
2022/09/29 02:39:47;;;;;;;50.78;12.00;;;5.70;99.90;;;;;;5054989;28;20048;-59
2022/09/29 02:42:22;;;;;;;66.53;12.75;;;5.70;99.90;;;;;;5054866;28;20041;-60
2022/09/29 02:44:57;;;;;;;77.88;12.77;;;5.60;99.90;;;;;;5055042;28;20041;-60
2022/09/29 02:47:48;;;;;;;253.73;17.00;;;5.60;99.90;;;;;;5054919;28;20110;-60
2022/09/29 02:50:41;;;;;;;100.63;13.77;;;5.70;99.90;;;;;;5054719;28;20040;-60
2022/09/29 02:53:16;;;;;;;245.63;17.25;;;5.70;99.90;;;;;;5054205;28;20481;-60
2022/09/29 02:55:47;;;;;;;178.10;15.20;;;5.80;99.90;;;;;;5054674;28;20044;-60
2022/09/29 02:58:33;;;;;;;55.40;13.25;;;5.80;99.90;;;;;;5054788;28;20426;-60
2022/09/29 03:00:59;;;;;;;107.22;14.93;;;5.70;99.90;;;;;;5054584;28;20045;-60
2022/09/29 03:03:26;;;;;;;118.57;15.77;;;;;;;;;;5054367;28;20045;-59
2022/09/29 03:05:52;;;;;;;71.78;13.75;;;5.70;99.90;;;;;;5054296;28;20049;-60
2022/09/29 03:08:18;;;;;;;74.07;14.45;;;;;;;;;;5054390;28;20037;-59
2022/09/29 03:10:44;;;;;;;58.65;13.93;;;5.40;99.90;;;;;;5054336;28;20489;-60
2022/09/29 03:13:10;;;;;;;48.40;14.98;;;6.00;99.90;;;;;;5054877;28;20041;-60
2022/09/29 03:15:35;;;;;;;58.75;16.10;;;5.70;99.90;;;;;;5053926;28;20497;-60
2022/09/29 03:18:03;;;;;;;48.90;14.73;;;5.90;99.90;;;;;;5054469;28;20374;-60
2022/09/29 03:20:29;;;;;;;55.67;15.88;;;5.50;99.90;;;;;;5053150;28;20493;-60
2022/09/29 03:22:57;;;;;;;23.10;15.05;;;5.90;99.90;;;;;;5054437;28;20127;-60
2022/09/29 03:25:23;;;;;;;44.78;16.95;;;6.00;99.90;;;;;;5054439;28;20499;-59
2022/09/29 03:27:49;;;;;;;195.73;18.63;;;6.00;99.90;;;;;;5053935;28;20073;-60
2022/09/29 03:30:16;;;;;;;185.05;18.95;;;5.70;99.90;;;;;;5053823;28;20051;-60
2022/09/29 03:32:43;;;;;;;92.22;18.92;;;;;;;;;;5054339;28;20032;-59
2022/09/29 03:35:11;;;;;;;248.50;22.20;;;6.00;99.90;;;;;;5053961;28;20124;-60
2022/09/29 03:37:37;;;;;;;136.35;19.20;;;5.90;99.90;;;;;;5053968;28;20045;-60
2022/09/29 03:40:08;;;;;;;225.77;19.48;;;6.00;99.90;;;;;;5053203;28;20507;-60
2022/09/29 03:42:34;;;;;;;302.50;24.48;;;6.20;99.90;;;;;;5053650;28;20045;-60
2022/09/29 03:45:00;;;;;;;191.68;21.35;;;6.10;99.90;;;;;;5053971;28;20044;-60
2022/09/29 03:47:25;;;;;;;78.20;18.08;;;5.50;99.90;;;;;;5053876;28;20102;-59
2022/09/29 03:49:51;;;;;;;55.65;17.58;;;5.90;99.90;;;;;;5053619;28;20033;-60
2022/09/29 03:52:17;;;;;;;128.57;19.23;;;6.50;99.90;;;;;;5052606;28;20561;-60
2022/09/29 03:54:46;;;;;;;49.28;17.65;;;6.00;99.90;;;;;;5053497;28;20037;-59
2022/09/29 03:57:12;;;;;;;73.85;16.60;;;6.00;99.90;;;;;;5053248;28;20068;-60
2022/09/29 03:59:38;;;;;;;55.28;15.65;;;;;;;;;;5053744;28;20069;-60
2022/09/29 04:02:04;;;;;;;86.22;17.38;;;5.80;99.90;;;;;;5053407;28;20508;-60
2022/09/29 04:04:33;;;;;;;77.25;17.02;;;5.60;99.90;;;;;;5053078;28;20064;-60
2022/09/29 04:06:59;;;;;;;44.40;15.48;;;5.90;99.90;;;;;;5053401;28;20045;-60
2022/09/29 04:09:24;;;;;;;59.92;15.38;;;6.30;99.90;;;;;;5053327;28;20033;-59
2022/09/29 04:11:50;;;;;;;39.17;16.27;;;6.80;99.90;;;;;;5053235;28;20416;-60
2022/09/29 04:14:16;;;;;;;89.53;15.95;;;;;;;;;;5053293;28;20103;-60
2022/09/29 04:16:42;;;;;;;89.40;15.60;;;6.10;99.90;;;;;;5053167;28;20044;-60
2022/09/29 04:19:11;;;;;;;81.75;17.20;;;6.00;99.90;;;;;;5053393;28;20378;-60
2022/09/29 04:21:37;;;;;;;76.10;16.95;;;;;;;;;;5052188;28;20055;-60
2022/09/29 04:24:03;;;;;;;40.15;14.13;;;;;;;;;;5052764;28;20051;-59
2022/09/29 04:26:29;;;;;;;37.20;14.23;;;5.90;99.90;;;;;;5053248;28;20048;-59
2022/09/29 04:28:55;;;;;;;90.63;15.85;;;5.80;99.90;;;;;;5053077;28;20041;-59
2022/09/29 04:31:20;;;;;;;35.20;14.45;;;5.90;99.90;;;;;;5052160;28;20040;-59
2022/09/29 04:33:48;;;;;;;109.45;16.00;;;;;;;;;;5044983;28;20049;-60
2022/09/29 04:36:14;;;;;;;24.25;14.38;;;5.40;99.90;;;;;;5027364;28;20037;-60
2022/09/29 04:38:40;;;;;;;44.15;14.90;;;;;;;;;;5032626;28;20045;-59
2022/09/29 04:41:06;;;;;;;57.40;14.80;;;;;;;;;;5050703;28;20059;-60
2022/09/29 04:43:32;;;;;;;36.60;16.10;;;5.60;99.90;;;;;;5053795;28;20065;-60
2022/09/29 04:46:06;;;;;;;26.80;15.05;;;5.50;99.90;;;;;;5055817;28;20060;-59
2022/09/29 04:48:32;;;;;;;36.15;14.63;;;5.50;99.90;;;;;;5056268;28;20040;-60
2022/09/29 04:50:58;;;;;;;27.70;15.40;;;;;;;;;;5055518;28;20039;-60
2022/09/29 04:53:24;;;;;;;32.47;14.55;;;;;;;;;;5051337;28;20554;-59
2022/09/29 04:55:50;;;;;;;19.08;13.40;;;5.40;99.90;;;;;;5036419;28;20049;-60
2022/09/29 04:58:16;;;;;;;20.98;13.15;;;5.70;99.90;;;;;;5055572;28;20072;-59
2022/09/29 05:00:43;;;;;;;19.92;14.23;;;;;;;;;;5055846;28;20072;-60
2022/09/29 05:03:09;;;;;;;75.10;15.38;;;;;;;;;;5055980;28;20497;-59
2022/09/29 05:05:35;;;;;;;22.23;14.43;;;5.30;99.90;;;;;;5055747;28;20500;-59
2022/09/29 05:08:04;;;;;;;127.47;16.80;;;5.30;99.90;;;;;;5054871;28;20125;-59
2022/09/29 05:10:31;;;;;;;73.75;15.27;;;;;;;;;;5055824;28;20051;-59
2022/09/29 05:12:57;;;;;;;86.32;17.67;;;;;;;;;;5054357;28;20091;-60
2022/09/29 05:15:24;;;;;;;72.95;15.35;;;5.40;99.90;;;;;;5054632;28;20037;-60
2022/09/29 05:17:49;;;;;;;67.85;15.38;;;5.50;99.90;;;;;;5055356;28;20047;-60
2022/09/29 05:20:15;;;;;;;78.15;15.13;;;5.40;99.90;;;;;;5054666;28;20037;-60
2022/09/29 05:22:41;;;;;;;63.03;14.43;;;5.40;99.90;;;;;;5055643;28;20041;-60
2022/09/29 05:25:09;;;;;;;110.82;16.05;;;6.50;99.90;;;;;;5056101;28;20032;-60
2022/09/29 05:27:37;;;;;;;155.38;15.27;;;5.70;99.90;;;;;;5054960;28;20040;-59
2022/09/29 05:30:04;;;;;;;115.95;15.30;;;5.50;99.90;;;;;;5056293;28;20493;-59
2022/09/29 05:32:30;;;;;;;284.73;17.20;;;5.40;99.90;;;;;;5056451;28;20118;-59
2022/09/29 05:34:56;;;;;;;249.43;18.05;;;;;;;;;;5054783;28;20037;-60
2022/09/29 05:37:22;;;;;;;269.83;18.25;;;5.60;99.90;;;;;;5056264;28;20045;-59
2022/09/29 05:39:48;;;;;;;197.90;16.70;;;5.80;99.90;;;;;;5055959;28;20061;-59
2022/09/29 05:42:14;;;;;;;293.50;18.30;;;;;;;;;;5055983;28;20083;-60
2022/09/29 05:44:40;;;;;;;212.98;16.85;;;5.00;99.90;;;;;;5055915;28;20541;-59
2022/09/29 05:47:05;;;;;;;135.15;15.60;;;5.60;99.90;;;;;;5055918;28;20121;-60
2022/09/29 05:49:32;;;;;;;147.65;15.80;;;5.40;99.90;;;;;;5055872;28;20040;-59
2022/09/29 05:51:58;;;;;;;158.88;15.48;;;5.10;99.90;;;;;;5056191;28;20143;-60
2022/09/29 05:54:26;;;;;;;152.35;16.05;;;5.50;99.90;;;;;;5055878;28;20041;-59
2022/09/29 05:56:52;;;;;;;88.80;15.15;;;5.30;99.90;;;;;;5055821;28;20056;-59
2022/09/29 05:59:18;;;;;;;186.40;16.88;;;5.80;99.90;;;;;;5055785;28;20404;-60
2022/09/29 06:01:43;;;;;;;100.57;15.90;;;5.40;99.90;;;;;;5055665;28;20051;-60
2022/09/29 06:04:09;;;;;;;284.35;17.02;;;5.40;99.90;;;;;;5054859;28;20049;-60
2022/09/29 06:06:35;;;;;;;188.02;17.63;;;5.60;99.90;;;;;;5055573;28;20037;-59
2022/09/29 06:09:02;;;;;;;150.10;15.02;;;5.40;99.90;;;;;;5055470;28;20037;-60
2022/09/29 06:11:30;;;;;;;83.43;16.10;;;5.50;99.90;;;;;;5055649;28;20048;-59
2022/09/29 06:13:57;;;;;;;101.45;14.90;;;6.30;99.90;;;;;;5055522;28;20071;-60
2022/09/29 06:16:25;;;;;;;62.00;15.18;;;5.50;99.90;;;;;;5055416;28;20052;-59
2022/09/29 06:18:51;;;;;;;204.80;17.05;;;;;;;;;;5053807;28;20047;-60
2022/09/29 06:21:22;;;;;;;86.22;16.40;;;5.70;99.90;;;;;;5054519;28;20041;-59
2022/09/29 06:23:48;;;;;;;92.75;18.20;;;;;;;;;;5055334;28;20488;-59
2022/09/29 06:26:17;;;;;;;61.58;16.63;;;6.10;99.90;;;;;;5055368;28;20044;-60
2022/09/29 06:28:43;;;;;;;80.95;16.48;;;5.50;99.90;;;;;;5055037;28;20091;-59
2022/09/29 06:31:14;;;;;;;60.90;17.58;;;5.90;99.90;;;;;;5055176;28;20442;-60
2022/09/29 06:33:40;;;;;;;74.22;16.98;;;;;;;;;;5055230;28;20041;-60
2022/09/29 06:38:54;;;;;;;48.25;16.08;;;6.20;99.90;;;;;;5055117;28;20047;-60
2022/09/29 06:41:23;;;;;;;94.90;19.42;;;6.40;99.90;;;;;;5067125;28;20041;-59
2022/09/29 06:43:49;;;;;;;155.25;16.70;;;;;;;;;;5074709;28;20048;-60
2022/09/29 06:46:14;;;;;;;176.15;16.85;;;6.60;99.90;;;;;;5067297;28;20040;-59
2022/09/29 06:48:40;;;;;;;74.38;16.45;;;6.00;99.90;;;;;;5053707;28;20094;-60
2022/09/29 06:51:07;;;;;;;328.98;18.27;;;6.50;99.90;;;;;;5053720;28;20102;-60
2022/09/29 06:53:34;;;;;;;189.35;16.55;;;6.60;99.90;;;;;;5051162;28;20044;-60
2022/09/29 06:56:11;;;;;;;395.60;19.45;;;6.20;99.90;;;;;;5053572;28;20048;-59
2022/09/29 06:58:37;;;;;;;135.40;15.70;;;6.70;99.90;;;;;;5053614;28;20041;-59
2022/09/29 07:01:04;;;;;;;94.00;16.45;;;6.90;99.90;;;;;;5052295;28;20037;-60
2022/09/29 07:03:34;;;;;;;90.72;15.75;;;7.10;99.90;;;;;;5053262;28;20056;-59
2022/09/29 07:06:05;;;;;;;82.70;15.43;;;6.90;99.90;;;;;;5052282;28;20505;-59
2022/09/29 07:08:37;;;;;;;96.78;15.48;;;6.30;99.90;;;;;;5052927;28;20211;-60
2022/09/29 07:11:04;;;;;;;75.72;14.00;;;7.30;99.90;;;;;;5050660;28;20485;-59
2022/09/29 07:13:31;;;;;;;115.55;19.33;;;7.20;99.90;;;;;;5053242;28;20041;-59
2022/09/29 07:16:09;;;;;;;29.10;15.32;;;7.20;99.90;;;;;;5052976;28;20567;-59
2022/09/29 07:18:40;;;;;;;42.92;15.10;;;7.90;99.90;;;;;;5052968;28;20033;-60
2022/09/29 07:21:10;;;;;;;82.05;14.82;;;7.40;99.90;;;;;;5049791;28;20044;-59
2022/09/29 07:23:37;;;;;;;56.65;16.60;;;7.00;99.90;;;;;;5053181;28;20072;-59
2022/09/29 07:26:06;;;;;;;40.83;16.17;;;7.20;99.90;;;;;;5052779;28;20404;-59
2022/09/29 07:28:33;;;;;;;24.38;15.43;;;7.90;99.90;;;;;;5052434;28;20037;-59
2022/09/29 07:31:04;;;;;;;25.75;15.13;;;7.70;99.90;;;;;;5052093;28;20116;-60
2022/09/29 07:33:31;;;;;;;41.20;17.00;;;7.90;99.90;;;;;;5052817;28;20400;-60
2022/09/29 07:35:59;;;;;;;44.72;18.02;;;8.30;99.90;;;;;;5050480;28;20032;-60
2022/09/29 07:38:27;;;;;;;28.50;17.38;;;8.10;99.90;;;;;;5052627;28;20469;-60
2022/09/29 07:41:01;;;;;;;26.65;17.40;;;8.50;99.90;;;;;;5053029;28;20060;-60
2022/09/29 07:43:31;;;;;;;28.73;16.50;;;8.30;99.90;;;;;;5052628;28;20040;-60
2022/09/29 07:45:59;;;;;;;21.70;15.88;;;;;;;;;;5054391;28;20145;-59
2022/09/29 07:48:25;;;;;;;24.75;15.93;;;8.60;99.90;;;;;;5052400;28;20435;-59
2022/09/29 07:50:51;;;;;;;23.02;15.50;;;8.80;99.90;;;;;;5050943;28;20037;-61
2022/09/29 07:53:21;;;;;;;22.80;16.83;;;9.40;99.90;;;;;;5052571;28;20102;-60
2022/09/29 07:55:47;;;;;;;23.15;14.05;;;8.90;99.90;;;;;;5052654;28;20047;-60
2022/09/29 07:58:13;;;;;;;40.10;13.48;;;9.30;99.90;;;;;;5052156;28;20041;-60
2022/09/29 08:00:43;;;;;;;58.42;14.10;;;9.30;99.90;;;;;;5052015;28;20037;-60
2022/09/29 08:03:09;;;;;;;33.20;13.85;;;9.30;99.90;;;;;;5052078;28;20032;-60
2022/09/29 08:05:35;;;;;;;37.72;12.43;;;9.50;99.90;;;;;;5052186;28;20056;-60
2022/09/29 08:08:03;;;;;;;13.75;11.82;;;9.40;99.90;;;;;;5084368;28;20106;-60
2022/09/29 08:10:31;;;;;;;20.00;13.23;;;9.60;99.90;;;;;;5053107;28;20508;-61
2022/09/29 08:12:59;;;;;;;21.00;12.80;;;9.80;99.90;;;;;;5051165;28;20397;-60
2022/09/29 08:15:25;;;;;;;20.90;13.30;;;9.80;99.90;;;;;;5052837;28;20055;-60
2022/09/29 08:17:54;;;;;;;24.10;13.25;;;10.00;99.90;;;;;;5052183;28;20044;-60
2022/09/29 08:20:27;;;;;;;15.30;13.30;;;10.00;99.90;;;;;;5052318;28;20043;-60
2022/09/29 08:22:55;;;;;;;17.70;12.88;;;;;;;;;;5051974;28;20040;-60
2022/09/29 08:25:24;;;;;;;15.88;13.05;;;10.30;99.90;;;;;;5051829;28;20045;-60
2022/09/29 08:27:51;;;;;;;14.13;12.70;;;10.50;99.90;;;;;;5051971;28;20076;-61
2022/09/29 08:30:17;;;;;;;16.27;12.30;;;;;;;;;;5052292;28;20118;-60
2022/09/29 08:32:49;;;;;;;20.05;14.50;;;10.80;99.90;;;;;;5053043;28;20056;-61
2022/09/29 08:35:15;;;;;;;14.32;12.13;;;10.70;99.90;;;;;;5052213;28;20040;-61
2022/09/29 08:37:40;;;;;;;11.93;10.73;;;11.40;99.90;;;;;;5051964;28;20408;-61
2022/09/29 08:40:07;;;;;;;13.15;11.75;;;11.60;99.90;;;;;;5050318;28;20129;-61
2022/09/29 08:43:00;;;;;;;11.07;9.90;;;12.10;99.90;;;;;;5051727;28;20048;-61
2022/09/29 08:45:36;;;;;;;12.32;10.57;;;13.00;99.90;;;;;;5051940;28;20064;-61
2022/09/29 08:48:21;;;;;;;10.50;9.40;;;13.10;99.90;;;;;;5051343;28;20052;-61
2022/09/29 08:50:51;;;;;;;10.47;9.47;;;13.60;99.90;;;;;;5050706;28;20447;-61
2022/09/29 08:53:20;;;;;;;11.95;9.20;;;13.70;99.90;;;;;;5049871;28;20041;-62
2022/09/29 08:56:08;;;;;;;10.48;9.35;;;13.80;99.90;;;;;;5051831;28;20539;-61
2022/09/29 08:58:38;;;;;;;9.25;8.35;;;13.60;99.90;;;;;;5051835;28;20080;-61
2022/09/29 09:01:37;;;;;;;18.25;8.70;;;13.40;99.90;;;;;;5051443;28;20094;-62
2022/09/29 09:04:30;;;;;;;10.13;8.05;;;13.90;99.90;;;;;;5037444;28;20057;-62
2022/09/29 09:07:05;;;;;;;10.40;8.50;;;14.40;99.90;;;;;;5049014;28;20221;-62
2022/09/29 09:09:58;;;;;;;8.27;7.38;;;14.80;99.90;;;;;;5051216;28;20040;-62
2022/09/29 09:12:55;;;;;;;8.85;7.95;;;15.30;99.90;;;;;;5051485;28;20370;-61
2022/09/29 09:15:41;;;;;;;11.02;7.93;;;15.70;99.90;;;;;;5051019;28;20120;-61
2022/09/29 09:18:26;;;;;;;9.23;8.00;;;16.30;99.90;;;;;;5049440;28;20128;-62
2022/09/29 09:21:08;;;;;;;9.40;7.97;;;16.30;99.90;;;;;;5051445;28;20068;-62
2022/09/29 09:23:48;;;;;;;8.80;7.60;;;16.30;99.90;;;;;;5051573;28;20043;-62
2022/09/29 09:26:17;;;;;;;9.90;8.90;;;16.30;99.90;;;;;;5051332;28;20048;-61
2022/09/29 09:29:00;;;;;;;10.25;8.30;;;16.40;99.90;;;;;;5050004;28;20037;-62
2022/09/29 09:31:42;;;;;;;11.02;8.95;;;16.10;99.90;;;;;;5055383;28;20044;-61
2022/09/29 09:34:41;;;;;;;8.20;7.32;;;16.20;99.90;;;;;;5055134;28;20037;-62
2022/09/29 09:37:19;;;;;;;10.32;8.48;;;16.20;99.90;;;;;;5045284;28;20057;-62
2022/09/29 09:39:48;;;;;;;9.07;8.15;;;15.40;99.90;;;;;;5053956;28;20428;-61
2022/09/29 09:42:21;;;;;;;8.05;7.25;;;15.40;99.90;;;;;;5055013;28;20041;-61
2022/09/29 09:45:06;;;;;;;8.57;7.20;;;15.60;99.90;;;;;;5053952;28;20045;-61
2022/09/29 09:47:41;;;;;;;8.18;7.35;;;15.30;99.90;;;;;;5052620;28;20126;-61
2022/09/29 09:50:18;;;;;;;10.90;7.57;;;14.80;99.90;;;;;;5054741;28;20045;-62
2022/09/29 09:52:52;;;;;;;8.07;7.28;;;14.80;99.90;;;;;;5053621;28;20033;-62
2022/09/29 09:55:23;;;;;;;12.50;8.20;;;15.00;99.90;;;;;;5054729;28;20110;-61
2022/09/29 09:58:17;;;;;;;8.27;7.30;;;15.30;99.90;;;;;;5054182;28;20524;-61
2022/09/29 10:00:51;;;;;;;9.75;7.90;;;14.80;99.90;;;;;;5054725;28;20037;-61
2022/09/29 10:03:17;;;;;;;9.02;7.72;;;14.80;99.90;;;;;;5052458;28;20037;-61
2022/09/29 10:05:47;;;;;;;9.70;7.85;;;14.90;99.90;;;;;;5054092;28;20079;-62
2022/09/29 10:08:38;;;;;;;10.45;8.57;;;14.80;99.90;;;;;;5053722;28;20045;-62
2022/09/29 10:11:26;;;;;;;11.18;8.48;;;14.80;99.90;;;;;;5052566;28;20029;-62
2022/09/29 10:14:00;;;;;;;11.60;8.45;;;14.90;99.90;;;;;;5053071;28;20080;-62
2022/09/29 10:16:34;;;;;;;10.60;9.50;;;14.70;99.90;;;;;;5052683;28;20043;-61
2022/09/29 10:19:05;;;;;;;11.05;9.95;;;14.80;99.90;;;;;;5053887;28;20079;-61
2022/09/29 10:21:31;;;;;;;11.30;9.18;;;14.60;99.90;;;;;;5052058;28;20047;-61
2022/09/29 10:23:59;;;;;;;9.88;8.68;;;14.90;99.90;;;;;;5054416;28;20389;-61
2022/09/29 10:26:37;;;;;;;9.57;8.50;;;14.80;99.90;;;;;;5054259;28;20045;-61
2022/09/29 10:29:31;;;;;;;9.50;8.50;;;14.90;99.90;;;;;;5052927;28;20117;-61
2022/09/29 10:32:04;;;;;;;11.25;8.60;;;14.80;99.90;;;;;;5054108;28;20036;-61
2022/09/29 10:34:30;;;;;;;9.93;8.75;;;14.60;99.90;;;;;;5053414;28;20091;-61
2022/09/29 10:37:22;;;;;;;9.93;8.82;;;14.90;99.90;;;;;;5051456;28;20045;-61
2022/09/29 10:39:48;;;;;;;12.15;8.98;;;14.70;99.90;;;;;;5052250;28;20493;-62
2022/09/29 10:42:34;;;;;;;10.73;8.70;;;14.20;99.90;;;;;;5052196;28;20400;-62
2022/09/29 10:45:18;;;;;;;8.63;7.80;;;15.00;99.90;;;;;;5053719;28;20037;-61
2022/09/29 10:47:55;;;;;;;11.35;8.25;;;14.80;99.90;;;;;;5043622;28;20417;-61
2022/09/29 10:50:24;;;;;;;10.40;8.30;;;14.80;99.90;;;;;;5052660;28;20043;-61
2022/09/29 10:52:52;;;;;;;9.77;8.52;;;14.90;99.90;;;;;;5052034;28;20508;-61
2022/09/29 10:55:33;;;;;;;13.50;8.60;;;14.90;99.90;;;;;;5052616;28;20040;-61
2022/09/29 10:58:04;;;;;;;9.75;7.90;;;14.90;99.90;;;;;;5050550;28;20507;-62
2022/09/29 11:00:38;;;;;;;9.07;7.90;;;15.10;99.90;;;;;;5052840;28;20094;-62
2022/09/29 11:03:15;;;;;;;9.20;8.30;;;14.90;99.90;;;;;;5051519;28;20102;-62
2022/09/29 11:05:53;;;;;;;8.73;7.45;;;14.90;99.90;;;;;;5051737;28;20049;-61
2022/09/29 11:08:24;;;;;;;9.75;7.63;;;15.30;99.90;;;;;;5053111;28;20033;-61
2022/09/29 11:11:06;;;;;;;9.15;7.45;;;14.60;99.90;;;;;;5054582;28;20044;-62
2022/09/29 11:13:36;;;;;;;11.18;7.90;;;15.10;99.90;;;;;;5053586;28;20048;-62
2022/09/29 11:16:27;;;;;;;9.65;7.18;;;15.20;99.90;;;;;;5050334;28;20033;-62
2022/09/29 11:18:57;;;;;;;10.73;6.93;;;15.20;99.90;;;;;;5047985;28;20049;-62
2022/09/29 11:21:54;;;;;;;8.85;7.07;;;15.30;99.90;;;;;;5052973;28;20492;-61
2022/09/29 11:24:25;;;;;;;11.07;7.57;;;15.50;99.90;;;;;;5052940;28;20098;-62
2022/09/29 11:27:19;;;;;;;9.05;6.45;;;15.60;99.90;;;;;;5053218;28;20396;-62
2022/09/29 11:30:05;;;;;;;8.32;6.70;;;15.70;99.90;;;;;;5053173;28;20072;-62
2022/09/29 11:32:45;;;;;;;9.73;7.40;;;15.70;99.90;;;;;;5051829;28;20051;-62
2022/09/29 11:35:40;;;;;;;9.40;6.72;;;16.00;99.90;;;;;;5052828;28;20041;-61
2022/09/29 11:38:19;;;;;;;8.25;6.82;;;15.70;99.90;;;;;;5047838;28;20057;-61
2022/09/29 11:41:15;;;;;;;10.35;6.43;;;15.80;99.90;;;;;;5051150;28;20048;-62
2022/09/29 11:43:46;;;;;;;7.18;5.90;;;15.80;99.90;;;;;;5046703;28;20049;-62
2022/09/29 11:46:30;;;;;;;7.07;6.10;;;15.90;99.90;;;;;;5052687;28;20080;-62
2022/09/29 11:49:23;;;;;;;9.27;6.30;;;16.00;99.90;;;;;;5052854;28;20033;-62
2022/09/29 11:52:06;;;;;;;8.98;6.40;;;15.80;99.90;;;;;;5048969;28;20389;-62
2022/09/29 11:54:56;;;;;;;7.30;5.97;;;16.10;99.90;;;;;;5052661;28;20049;-62
2022/09/29 11:57:55;;;;;;;6.22;5.10;;;16.20;99.90;;;;;;5050152;28;20091;-62
2022/09/29 12:00:37;;;;;;;8.68;5.55;;;16.00;99.90;;;;;;5050928;28;20471;-62
2022/09/29 12:03:24;;;;;;;7.57;6.20;;;16.50;99.90;;;;;;5052543;28;20106;-62
2022/09/29 12:06:14;;;;;;;8.25;5.90;;;16.30;99.90;;;;;;5050201;28;20132;-63
2022/09/29 12:08:55;;;;;;;8.52;5.97;;;16.60;99.90;;;;;;5052127;28;20088;-62
2022/09/29 12:11:26;;;;;;;9.55;6.10;;;16.90;99.90;;;;;;5051609;28;20029;-62
2022/09/29 12:13:52;;;;;;;8.07;6.28;;;;;;;;;;5052347;28;20036;-62
2022/09/29 12:16:21;;;;;;;9.55;6.88;;;16.80;99.90;;;;;;5052049;28;20366;-62
2022/09/29 12:19:16;;;;;;;7.32;6.25;;;17.20;99.90;;;;;;5051986;28;20497;-62
2022/09/29 12:21:49;;;;;;;6.28;5.07;;;16.80;99.90;;;;;;5042879;28;20049;-62
2022/09/29 12:24:42;;;;;;;9.35;6.10;;;17.20;99.90;;;;;;5049763;28;20052;-62
2022/09/29 12:27:15;;;;;;;11.23;7.28;;;17.20;99.90;;;;;;5050926;28;20041;-62
2022/09/29 12:29:47;;;;;;;8.20;5.68;;;17.60;99.90;;;;;;5049877;28;20488;-62
2022/09/29 12:32:19;;;;;;;8.02;5.70;;;17.10;99.90;;;;;;5050174;28;20043;-62
2022/09/29 12:34:52;;;;;;;7.70;6.53;;;17.40;99.90;;;;;;5050160;28;20064;-63
2022/09/29 12:37:46;;;;;;;9.75;7.28;;;17.50;99.90;;;;;;5051597;28;20120;-63
2022/09/29 12:40:34;;;;;;;9.30;6.40;;;17.70;99.90;;;;;;5051957;28;20053;-62
2022/09/29 12:43:29;;;;;;;8.45;5.50;;;17.20;99.90;;;;;;5051581;28;20056;-62
2022/09/29 12:45:55;;;;;;;10.75;6.57;;;17.40;99.90;;;;;;5049244;28;20041;-62
2022/09/29 12:48:47;;;;;;;9.55;6.95;;;17.60;99.90;;;;;;5052742;28;20087;-62
2022/09/29 12:51:29;;;;;;;10.57;6.32;;;17.60;99.90;;;;;;5052403;28;20527;-63
2022/09/29 12:54:31;;;;;;;14.25;6.55;;;17.60;99.90;;;;;;5049027;28;20051;-62
2022/09/29 12:57:04;;;;;;;12.90;6.05;;;17.80;99.90;;;;;;5051919;28;20048;-62
2022/09/29 12:59:54;;;;;;;7.97;6.95;;;17.60;99.90;;;;;;5051863;28;20358;-63
2022/09/29 13:02:43;;;;;;;8.32;7.07;;;18.00;99.90;;;;;;5051567;28;20558;-62
2022/09/29 13:05:34;;;;;;;9.75;7.80;;;17.40;99.90;;;;;;5054591;28;20055;-62
2022/09/29 13:08:22;;;;;;;6.60;5.38;;;18.10;99.90;;;;;;5037040;28;20045;-62
2022/09/29 13:10:56;;;;;;;8.13;5.38;;;17.80;99.90;;;;;;5054211;28;20069;-62
2022/09/29 13:13:52;;;;;;;8.18;4.63;;;18.20;99.90;;;;;;5056011;28;20033;-62
2022/09/29 13:16:52;;;;;;;6.72;5.03;;;18.10;99.90;;;;;;5055282;28;20041;-61
2022/09/29 13:19:34;;;;;;;6.40;5.50;;;18.50;99.90;;;;;;5037533;28;20140;-63
2022/09/29 13:22:15;;;;;;;7.80;6.03;;;18.40;99.90;;;;;;5055396;28;20459;-62